Time;durP1;ratioP1;P1;durP2;ratioP2;P2;SDS_P1;SDS_P2;PMS_P1;PMS_P2;Temp;Humidity;BMP_temperature;BMP_pressure;BME280_temperature;BME280_humidity;BME280_pressure;Samples;Min_cycle;Max_cycle;Signal;HPM_P1;HPM_P2
2021/03/11 10:05:32;;;;;;;;;;;;;;;22.07;37.71;99190.88;5058493;27;19936;-72
2021/03/11 10:07:58;;;;;;;;;;;;;;;22.00;37.96;99246.75;5047098;28;19921;-73
2021/03/11 10:10:24;;;;;;;;;;;;;;;21.93;38.14;99284.31;5044249;28;20397;-73
2021/03/11 10:12:50;;;;;;;;;;;;;;;21.89;38.28;99253.91;5040543;28;19932;-73
2021/03/11 10:15:18;;;;;;;;;;;;;;;21.85;38.20;99259.03;5045404;28;19928;-73
2021/03/11 10:17:43;;;;;;;;;;;;;;;21.82;38.20;99234.97;5036693;28;19932;-73
2021/03/11 10:20:20;;;;;;;;;;;;;;;21.81;38.09;99276.16;5043843;28;19921;-73
2021/03/11 10:22:45;;;;;;;;;;;;;;;21.79;37.99;99251.84;5046634;28;19978;-72
2021/03/11 10:25:15;;;;;;;15.10;6.10;;;;;;;21.88;38.20;99277.66;5042168;28;20416;-71
2021/03/11 10:27:44;;;;;;;14.57;6.40;;;;;;;21.90;39.39;99313.75;5058901;28;20078;-74
2021/03/11 10:30:23;;;;;;;230.75;106.90;;;;;;;22.63;38.34;99274.09;5043311;28;20086;-73
2021/03/11 10:35:23;;;;;;;64.30;24.80;;;;;;;22.80;37.07;99277.66;5062576;28;20458;-86
2021/03/11 10:37:48;;;;;;;67.50;22.92;;;;;;;22.83;37.34;99290.81;5058769;28;20447;-82
2021/03/11 10:40:22;;;;;;;59.53;23.73;;;;;;;22.80;36.67;99263.16;5058425;28;20072;-89
2021/03/11 10:42:49;;;;;;;73.07;49.92;;;;;;;22.80;37.40;99280.38;5060383;28;20060;-84
2021/03/11 10:45:17;;;;;;;35.90;14.60;;;;;;;22.93;37.20;99285.50;5057759;28;20032;-87
2021/03/11 10:48:03;;;;;;;28.27;12.57;;;;;;;22.99;37.00;99305.56;5063912;28;20483;-80
2021/03/11 10:50:31;;;;;;;29.15;11.73;;;;;;;23.02;37.51;99302.31;5054282;28;20395;-81
2021/03/11 10:52:57;;;;;;;29.88;11.57;;;;;;;23.25;37.96;99328.69;5058157;28;20026;-80
2021/03/11 10:55:25;;;;;;;26.55;10.95;;;;;;;23.72;37.26;99288.22;5055973;28;20025;-82
2021/03/11 10:57:51;;;;;;;18.67;7.65;;;;;;;23.64;36.35;99314.16;5060852;28;20056;-80
2021/03/11 11:00:25;;;;;;;21.75;8.38;;;;;;;23.46;36.06;99353.63;5055911;28;20072;-80
2021/03/11 11:02:59;;;;;;;18.52;7.80;;;;;;;23.39;36.04;99347.50;5055151;28;20028;-81
2021/03/11 11:05:25;;;;;;;14.30;6.00;;;;;;;23.26;32.12;99381.50;5053761;28;20321;-77
2021/03/11 11:10:29;;;;;;;10.32;3.53;;;;;;;19.14;39.70;99393.44;4981650;26;19932;-72
2021/03/11 11:12:55;;;;;;;9.20;3.50;;;;;;;20.28;38.02;99384.06;4997888;28;20026;-72
2021/03/11 11:15:20;;;;;;;10.77;3.25;;;;;;;20.89;36.93;99414.03;4997448;28;20438;-72
2021/03/11 11:17:46;;;;;;;8.18;2.80;;;;;;;21.24;36.21;99399.63;5000298;28;20022;-72
2021/03/11 11:20:15;;;;;;;12.27;3.88;;;;;;;21.23;37.16;99415.16;5006537;28;20034;-69
2021/03/11 11:22:40;;;;;;;10.65;3.72;;;;;;;21.24;36.35;99408.63;5002447;28;20026;-68
2021/03/11 11:25:07;;;;;;;9.75;3.47;;;;;;;21.26;36.02;99438.41;4995995;28;20026;-67
2021/03/11 11:27:34;;;;;;;8.98;3.10;;;;;;;21.30;36.17;99450.50;5004325;28;20029;-66
2021/03/11 11:29:59;;;;;;;8.48;3.20;;;;;;;21.32;36.06;99432.84;4999343;28;20029;-64
2021/03/11 11:32:26;;;;;;;9.02;3.42;;;;;;;21.35;36.30;99429.63;5001380;28;20034;-66
2021/03/11 11:34:51;;;;;;;7.13;2.72;;;;;;;21.37;36.32;99452.06;5001591;28;20030;-64
2021/03/11 11:37:18;;;;;;;10.65;3.25;;;;;;;21.36;36.35;99465.94;5001662;28;20040;-69
2021/03/11 11:39:52;;;;;;;13.90;6.15;;;;;;;21.43;37.04;99433.09;4990546;28;20026;-82
2021/03/11 11:42:18;;;;;;;14.57;5.68;;;;;;;21.37;37.34;99465.69;4998315;28;20049;-82
2021/03/11 11:44:45;;;;;;;14.68;6.28;;;;;;;21.36;37.41;99444.09;4994355;28;20026;-81
2021/03/11 11:47:11;;;;;;;15.10;5.85;;;;;;;21.38;37.65;99464.63;4989081;28;20034;-83
2021/03/11 11:49:36;;;;;;;13.20;5.13;;;;;;;21.41;37.45;99463.34;4986969;28;20034;-82
2021/03/11 11:52:02;;;;;;;13.32;6.10;;;;;;;21.45;37.67;99470.00;4986361;28;20531;-81
2021/03/11 11:54:28;;;;;;;13.50;5.43;;;;;;;21.49;37.37;99490.25;4989090;28;20035;-81
2021/03/11 11:56:54;;;;;;;13.23;5.35;;;;;;;21.53;37.34;99464.19;4988979;28;20079;-83
2021/03/11 11:59:20;;;;;;;10.10;5.55;;;;;;;21.57;37.47;99469.19;4987756;28;20050;-81
2021/03/11 12:01:45;;;;;;;11.48;5.20;;;;;;;21.59;37.43;99483.44;4987000;28;20029;-83
2021/03/11 12:04:11;;;;;;;12.43;4.97;;;;;;;21.57;37.53;99471.91;4989054;28;20030;-83
2021/03/11 12:06:40;;;;;;;13.73;5.20;;;;;;;21.66;37.44;99487.72;4991899;28;20097;-81
2021/03/11 12:09:06;;;;;;;12.13;4.97;;;;;;;21.69;37.33;99489.16;4994166;28;20071;-82
2021/03/11 12:11:33;;;;;;;12.10;4.82;;;;;;;21.69;37.36;99498.16;4990779;28;20272;-83
2021/03/11 12:13:59;;;;;;;12.80;4.63;;;;;;;21.68;37.31;99503.84;4986394;28;20073;-81
